Time;durP1;ratioP1;P1;durP2;ratioP2;P2;SDS_P1;SDS_P2;PMS_P1;PMS_P2;Temp;Humidity;BMP_temperature;BMP_pressure;BME280_temperature;BME280_humidity;BME280_pressure;Samples;Min_cycle;Max_cycle;Signal;HPM_P1;HPM_P2
2021/04/24 00:01:58;;;;;;;5.80;5.00;;;11.80;40.50;;;;;;5060981;28;20185;-85
2021/04/24 00:04:24;;;;;;;8.07;5.23;;;11.70;41.20;;;;;;5065436;28;20189;-85
2021/04/24 00:06:50;;;;;;;5.73;4.80;;;11.60;41.50;;;;;;5052284;28;20201;-85
2021/04/24 00:09:15;;;;;;;6.93;5.17;;;11.50;41.40;;;;;;5036829;28;20254;-85
2021/04/24 00:11:41;;;;;;;6.47;5.03;;;11.40;42.20;;;;;;5043975;28;20212;-86
2021/04/24 00:14:07;;;;;;;5.90;4.57;;;11.30;41.40;;;;;;5027466;28;20188;-85
2021/04/24 00:16:33;;;;;;;7.77;5.13;;;11.20;42.00;;;;;;5041959;28;20208;-86
2021/04/24 00:18:58;;;;;;;8.63;5.47;;;11.00;42.00;;;;;;5044760;28;20181;-86
2021/04/24 00:21:24;;;;;;;6.23;5.00;;;10.90;43.20;;;;;;5044995;28;20177;-85
2021/04/24 00:23:50;;;;;;;6.80;4.70;;;10.80;42.40;;;;;;5042872;28;20189;-85
2021/04/24 00:26:16;;;;;;;7.40;4.93;;;10.70;43.40;;;;;;5044380;28;20300;-84
2021/04/24 00:28:42;;;;;;;5.37;4.57;;;10.70;43.10;;;;;;5032225;28;20194;-86
2021/04/24 00:31:08;;;;;;;7.30;4.93;;;10.60;43.20;;;;;;5024432;28;20244;-85
2021/04/24 00:33:34;;;;;;;6.13;4.67;;;10.70;43.00;;;;;;5026451;28;20170;-85
2021/04/24 00:36:00;;;;;;;5.40;4.67;;;10.60;43.20;;;;;;5026001;28;20225;-85
2021/04/24 00:38:26;;;;;;;6.50;4.90;;;10.50;43.60;;;;;;5011010;28;20197;-85
2021/04/24 00:40:53;;;;;;;6.90;4.60;;;10.50;43.90;;;;;;5028200;28;20205;-86
2021/04/24 00:43:19;;;;;;;7.57;5.27;;;10.50;43.80;;;;;;5045132;28;20189;-84
2021/04/24 00:45:45;;;;;;;6.47;5.10;;;10.30;44.20;;;;;;5047775;28;20252;-85
2021/04/24 00:48:12;;;;;;;8.00;5.10;;;10.40;44.00;;;;;;5047100;28;20193;-85
2021/04/24 00:50:40;;;;;;;5.60;4.60;;;10.40;43.50;;;;;;5047505;28;20209;-85
2021/04/24 00:53:08;;;;;;;5.03;4.53;;;10.50;44.20;;;;;;5047293;28;20185;-85
2021/04/24 00:55:35;;;;;;;6.67;4.90;;;10.30;44.10;;;;;;5045785;28;20181;-85
2021/04/24 00:58:03;;;;;;;5.70;4.13;;;10.30;43.90;;;;;;5046508;28;20253;-85
2021/04/24 01:00:30;;;;;;;6.47;4.23;;;10.20;44.40;;;;;;5048068;28;20235;-85
2021/04/24 01:02:57;;;;;;;5.43;4.53;;;10.10;44.70;;;;;;5047729;28;20177;-84
2021/04/24 01:05:33;;;;;;;5.77;4.13;;;10.20;44.50;;;;;;5047181;28;20181;-86
2021/04/24 01:07:58;;;;;;;6.93;4.00;;;10.20;44.40;;;;;;5047345;28;20192;-86
2021/04/24 01:10:27;;;;;;;5.67;4.43;;;10.20;45.00;;;;;;5047392;28;20200;-86
2021/04/24 01:12:52;;;;;;;5.70;4.00;;;10.20;44.60;;;;;;5047524;28;20181;-86
2021/04/24 01:15:19;;;;;;;5.07;4.20;;;10.20;45.20;;;;;;5046752;28;20192;-85
2021/04/24 01:17:45;;;;;;;6.33;4.90;;;10.30;44.60;;;;;;5046704;28;20193;-85
2021/04/24 01:20:13;;;;;;;8.83;4.20;;;10.50;44.90;;;;;;5047005;28;20181;-86
2021/04/24 01:22:41;;;;;;;5.70;4.37;;;10.60;44.00;;;;;;5046990;28;20169;-85
2021/04/24 01:25:09;;;;;;;6.37;4.27;;;10.70;43.90;;;;;;5046709;28;20204;-87
2021/04/24 01:27:35;;;;;;;5.30;4.63;;;10.40;44.90;;;;;;5046492;28;20264;-85
2021/04/24 01:30:03;;;;;;;5.93;4.57;;;10.20;44.90;;;;;;5030023;28;20194;-85
2021/04/24 01:32:29;;;;;;;6.13;4.50;;;9.90;45.30;;;;;;5026941;28;20192;-85
2021/04/24 01:34:54;;;;;;;5.70;4.23;;;9.80;45.90;;;;;;5026540;28;20205;-86
2021/04/24 01:37:20;;;;;;;5.87;4.73;;;9.90;45.90;;;;;;5035036;28;20200;-85
2021/04/24 01:39:46;;;;;;;6.27;4.30;;;9.90;45.60;;;;;;5044922;28;20185;-85
2021/04/24 01:42:11;;;;;;;8.77;4.70;;;10.00;46.00;;;;;;5046959;28;20188;-85
2021/04/24 01:44:37;;;;;;;7.00;4.43;;;9.90;46.50;;;;;;5044176;28;20193;-85
2021/04/24 01:47:03;;;;;;;9.63;4.17;;;9.80;46.30;;;;;;5025912;28;20201;-86
2021/04/24 01:49:29;;;;;;;6.43;4.53;;;9.70;46.80;;;;;;5024773;28;20253;-85
2021/04/24 01:51:55;;;;;;;8.63;4.60;;;9.60;47.20;;;;;;5026370;28;20213;-85
2021/04/24 01:54:20;;;;;;;5.47;4.80;;;9.60;47.20;;;;;;5026088;28;20197;-85
2021/04/24 01:56:58;;;;;;;5.33;4.37;;;9.70;47.30;;;;;;5008910;28;20233;-85
2021/04/24 01:59:28;;;;;;;5.83;4.00;;;9.60;47.20;;;;;;5026157;28;20184;-86
2021/04/24 02:01:56;;;;;;;5.97;4.37;;;9.60;47.70;;;;;;5036593;28;20178;-85
2021/04/24 02:04:25;;;;;;;6.93;4.53;;;9.70;47.50;;;;;;5026083;28;20196;-85
2021/04/24 02:06:52;;;;;;;5.30;4.00;;;9.70;47.20;;;;;;5041417;28;20213;-85
2021/04/24 02:09:19;;;;;;;5.23;3.70;;;9.70;47.30;;;;;;5045209;28;20189;-86
2021/04/24 02:12:11;;;;;;;7.20;4.63;;;9.80;46.60;;;;;;5045911;28;20215;-85
2021/04/24 02:14:46;;;;;;;5.53;4.30;;;9.70;46.80;;;;;;5044713;28;20224;-85
2021/04/24 02:17:14;;;;;;;7.80;4.80;;;9.60;47.70;;;;;;5045558;28;20196;-85
2021/04/24 02:19:42;;;;;;;5.07;4.07;;;9.60;47.40;;;;;;5027200;28;20193;-85
2021/04/24 02:22:09;;;;;;;5.07;3.87;;;9.70;47.50;;;;;;5024991;28;20220;-85
2021/04/24 02:24:51;;;;;;;7.60;4.20;;;9.90;47.30;;;;;;5025629;28;20182;-85
2021/04/24 02:27:17;;;;;;;6.60;4.47;;;10.00;47.10;;;;;;5025500;28;20220;-85
2021/04/24 02:29:45;;;;;;;4.77;4.30;;;10.10;46.40;;;;;;5025940;28;20177;-85
2021/04/24 02:32:12;;;;;;;5.40;4.57;;;10.10;46.20;;;;;;5026863;28;20233;-85
2021/04/24 02:34:41;;;;;;;6.40;3.90;;;10.00;46.40;;;;;;5029767;28;20204;-85
2021/04/24 02:37:08;;;;;;;8.30;4.53;;;10.00;46.40;;;;;;5045030;28;20195;-85
2021/04/24 02:39:41;;;;;;;4.80;3.97;;;10.10;46.20;;;;;;5044134;28;20207;-85
2021/04/24 02:42:11;;;;;;;4.33;3.93;;;10.10;46.70;;;;;;5044397;28;20181;-85
2021/04/24 02:44:37;;;;;;;4.90;4.37;;;10.20;46.80;;;;;;5026288;28;20276;-86
2021/04/24 02:47:04;;;;;;;5.80;4.20;;;10.30;46.00;;;;;;5024257;28;20224;-85
2021/04/24 02:49:31;;;;;;;5.60;4.33;;;10.20;45.50;;;;;;5025392;28;20193;-86
2021/04/24 02:51:57;;;;;;;5.70;4.30;;;10.00;46.80;;;;;;5040220;28;20209;-86
2021/04/24 02:54:24;;;;;;;4.90;3.83;;;9.90;46.60;;;;;;5045165;28;20253;-86
2021/04/24 02:56:51;;;;;;;5.83;4.57;;;9.90;46.80;;;;;;5044630;28;20216;-86
2021/04/24 02:59:17;;;;;;;5.57;3.97;;;10.00;46.70;;;;;;5044330;28;20177;-85
2021/04/24 03:01:44;;;;;;;5.63;4.70;;;9.90;46.70;;;;;;5044754;28;20256;-86
2021/04/24 03:04:11;;;;;;;5.50;4.17;;;10.00;46.60;;;;;;5044780;28;20235;-85
2021/04/24 03:06:37;;;;;;;8.27;4.60;;;9.80;46.50;;;;;;5045255;28;20577;-85
2021/04/24 03:09:03;;;;;;;7.43;4.33;;;9.90;47.20;;;;;;5043277;28;20181;-86
2021/04/24 03:11:31;;;;;;;7.50;4.90;;;9.90;46.80;;;;;;5045331;28;20217;-85
2021/04/24 03:13:57;;;;;;;5.90;4.50;;;9.90;47.30;;;;;;5045348;28;20177;-86
2021/04/24 03:16:23;;;;;;;8.20;4.50;;;9.70;47.70;;;;;;5045052;28;20379;-85
2021/04/24 03:18:49;;;;;;;5.30;4.80;;;9.80;47.80;;;;;;5044797;28;20212;-86
2021/04/24 03:21:15;;;;;;;6.33;5.20;;;9.70;47.80;;;;;;5044247;28;20189;-86
2021/04/24 03:23:41;;;;;;;6.07;5.23;;;9.60;48.10;;;;;;5042779;28;20185;-86
2021/04/24 03:26:06;;;;;;;6.47;5.20;;;9.50;48.50;;;;;;5046096;28;20204;-86
2021/04/24 03:28:33;;;;;;;7.30;5.13;;;9.60;49.10;;;;;;5052090;28;20177;-86
2021/04/24 03:30:59;;;;;;;6.60;5.87;;;9.60;49.10;;;;;;5050691;28;20228;-86
2021/04/24 03:33:24;;;;;;;7.77;5.87;;;9.50;49.60;;;;;;5036811;28;20204;-87
2021/04/24 03:35:51;;;;;;;8.93;5.63;;;9.50;49.80;;;;;;5033717;28;20221;-86
2021/04/24 03:38:17;;;;;;;6.17;5.23;;;9.50;50.40;;;;;;5033332;28;20258;-85
2021/04/24 03:40:42;;;;;;;11.17;6.00;;;9.40;50.60;;;;;;5029703;28;20189;-86
2021/04/24 03:43:08;;;;;;;7.20;5.73;;;9.30;51.10;;;;;;5035711;28;20188;-86
2021/04/24 03:45:35;;;;;;;8.30;5.40;;;9.20;51.40;;;;;;5038321;28;20189;-86
2021/04/24 03:48:01;;;;;;;8.40;5.20;;;9.20;52.00;;;;;;5037595;28;20189;-85
2021/04/24 03:50:27;;;;;;;5.57;5.07;;;9.30;52.40;;;;;;5032678;28;20205;-86
2021/04/24 03:52:53;;;;;;;10.27;5.53;;;9.30;52.50;;;;;;5039801;28;20178;-85
2021/04/24 03:55:20;;;;;;;9.13;5.53;;;9.40;52.10;;;;;;5031351;28;20200;-85
2021/04/24 03:57:47;;;;;;;6.63;5.87;;;9.50;52.20;;;;;;5036268;28;20266;-83
2021/04/24 04:00:15;;;;;;;8.50;5.97;;;9.60;52.10;;;;;;5031636;28;20240;-86
2021/04/24 04:02:47;;;;;;;6.37;5.77;;;9.60;52.40;;;;;;5017628;28;20185;-80
2021/04/24 04:05:14;;;;;;;7.87;5.73;;;9.80;51.50;;;;;;5031494;28;20177;-84
2021/04/24 04:07:41;;;;;;;9.17;6.50;;;9.90;51.50;;;;;;5032353;28;20208;-86
2021/04/24 04:10:07;;;;;;;6.50;5.90;;;9.90;51.20;;;;;;5039655;22;20230;-85
2021/04/24 04:12:33;;;;;;;6.93;5.60;;;9.80;51.60;;;;;;4995279;28;20246;-85
2021/04/24 04:14:59;;;;;;;7.27;6.10;;;9.80;51.70;;;;;;5006958;28;20209;-85
2021/04/24 04:17:24;;;;;;;7.90;6.10;;;9.80;51.90;;;;;;5000497;28;20251;-85
2021/04/24 04:19:50;;;;;;;6.80;6.10;;;9.80;51.90;;;;;;5006238;28;20217;-85
2021/04/24 04:22:15;;;;;;;6.50;5.90;;;9.80;52.20;;;;;;4996163;28;20197;-85
2021/04/24 04:24:41;;;;;;;8.30;6.13;;;9.90;52.60;;;;;;5001491;28;20187;-85
2021/04/24 04:27:07;;;;;;;6.40;5.70;;;9.80;52.70;;;;;;4997960;28;20194;-85
2021/04/24 04:29:33;;;;;;;8.50;6.20;;;9.90;52.70;;;;;;4996311;28;20201;-84
2021/04/24 04:31:59;;;;;;;6.67;5.90;;;9.90;52.70;;;;;;4996773;28;20198;-85
2021/04/24 04:34:24;;;;;;;12.43;6.47;;;10.00;52.40;;;;;;4998360;28;20190;-85
2021/04/24 04:36:50;;;;;;;7.70;6.13;;;10.10;52.30;;;;;;5000142;28;20194;-84
2021/04/24 04:39:15;;;;;;;6.97;6.17;;;10.10;52.30;;;;;;5011997;28;20257;-85
2021/04/24 04:41:41;;;;;;;8.93;6.67;;;10.10;52.30;;;;;;5016109;28;20197;-84
2021/04/24 04:44:07;;;;;;;7.60;6.57;;;10.10;52.40;;;;;;5005059;28;20220;-85
2021/04/24 04:46:32;;;;;;;9.20;6.70;;;10.00;52.80;;;;;;5003063;28;20273;-85
2021/04/24 04:48:59;;;;;;;9.23;7.33;;;9.90;53.40;;;;;;4997886;28;20186;-85
2021/04/24 04:51:25;;;;;;;10.20;6.90;;;9.80;53.40;;;;;;4997945;28;20202;-85
2021/04/24 04:53:50;;;;;;;8.20;6.73;;;9.80;53.60;;;;;;4998394;28;20182;-85
2021/04/24 04:56:16;;;;;;;9.67;6.90;;;9.80;53.80;;;;;;4997997;28;20268;-83
2021/04/24 04:58:41;;;;;;;8.97;6.87;;;9.80;54.10;;;;;;5003248;28;20186;-84
2021/04/24 05:01:07;;;;;;;11.87;7.60;;;9.70;54.40;;;;;;5003399;28;20229;-86
2021/04/24 05:03:33;;;;;;;9.23;6.77;;;9.70;54.20;;;;;;5012113;28;20656;-83
2021/04/24 05:05:59;;;;;;;11.53;6.60;;;9.70;54.30;;;;;;5006743;28;20185;-88
2021/04/24 05:08:25;;;;;;;7.43;6.73;;;9.60;54.60;;;;;;4997435;28;20213;-85
2021/04/24 05:10:52;;;;;;;12.80;7.17;;;9.70;54.50;;;;;;5004595;28;20623;-82
2021/04/24 05:13:17;;;;;;;9.30;7.20;;;9.70;54.40;;;;;;5007686;28;20695;-84
2021/04/24 05:15:44;;;;;;;10.17;7.17;;;9.70;54.60;;;;;;5002668;28;20266;-83
2021/04/24 05:18:10;;;;;;;9.93;7.50;;;9.70;54.70;;;;;;5008315;28;20201;-83
2021/04/24 05:20:36;;;;;;;8.27;7.33;;;9.60;55.30;;;;;;4998854;28;20209;-83
2021/04/24 05:23:02;;;;;;;11.73;7.57;;;9.60;55.60;;;;;;4997733;28;20186;-84
2021/04/24 05:25:28;;;;;;;9.20;7.70;;;9.50;55.90;;;;;;4998253;28;20240;-82
2021/04/24 05:27:53;;;;;;;11.03;7.37;;;9.50;55.70;;;;;;5000371;28;20191;-85
2021/04/24 05:30:19;;;;;;;9.37;6.83;;;9.50;56.10;;;;;;5001115;28;20581;-85
2021/04/24 05:32:46;;;;;;;9.50;8.07;;;9.40;56.60;;;;;;4997843;28;20226;-84
2021/04/24 05:35:14;;;;;;;9.63;6.90;;;9.30;57.00;;;;;;4998065;28;20175;-86
2021/04/24 05:37:40;;;;;;;8.27;7.27;;;9.20;57.10;;;;;;5004250;28;20270;-83
2021/04/24 05:40:07;;;;;;;10.13;7.63;;;9.30;57.20;;;;;;4997218;28;20621;-86
2021/04/24 05:42:33;;;;;;;8.40;7.47;;;9.40;57.20;;;;;;4995461;28;20548;-85
2021/04/24 05:44:59;;;;;;;11.23;7.93;;;9.30;57.20;;;;;;5005179;28;20193;-84
2021/04/24 05:47:27;;;;;;;8.97;7.43;;;9.30;57.50;;;;;;5003464;28;20189;-81
2021/04/24 05:49:53;;;;;;;8.93;7.17;;;9.30;57.50;;;;;;5009534;28;20207;-85
2021/04/24 05:52:18;;;;;;;11.53;8.10;;;9.30;57.50;;;;;;5013406;28;20197;-86
2021/04/24 05:54:44;;;;;;;13.93;8.70;;;9.20;57.60;;;;;;5015779;28;20190;-84
2021/04/24 05:57:11;;;;;;;13.37;8.60;;;9.20;57.80;;;;;;5008485;28;20179;-85
2021/04/24 05:59:37;;;;;;;11.33;8.40;;;9.20;57.60;;;;;;5015970;28;20186;-84
2021/04/24 06:02:02;;;;;;;13.43;8.47;;;9.20;57.50;;;;;;5014906;28;20209;-84
2021/04/24 06:04:28;;;;;;;14.70;8.60;;;9.20;57.50;;;;;;5001148;28;20186;-84
2021/04/24 06:06:54;;;;;;;12.97;8.50;;;9.20;57.50;;;;;;5000540;28;20500;-84
2021/04/24 06:09:19;;;;;;;10.13;8.30;;;9.20;57.60;;;;;;5004546;28;20193;-84
2021/04/24 06:11:45;;;;;;;9.63;8.57;;;9.20;57.60;;;;;;5004271;28;20229;-83
2021/04/24 06:14:11;;;;;;;11.50;7.43;;;9.30;58.40;;;;;;5016951;28;20192;-83
2021/04/24 06:16:36;;;;;;;11.33;8.37;;;9.40;57.10;;;;;;5020901;28;20548;-85
2021/04/24 06:19:02;;;;;;;11.07;8.20;;;9.50;56.90;;;;;;5016466;28;20182;-86
2021/04/24 06:21:28;;;;;;;16.53;8.20;;;9.60;56.50;;;;;;5005872;28;20297;-85
2021/04/24 06:23:56;;;;;;;12.07;7.87;;;9.50;56.10;;;;;;5002799;28;20194;-85
2021/04/24 06:26:21;;;;;;;22.47;7.93;;;9.50;55.80;;;;;;5002598;28;20664;-85
2021/04/24 06:28:47;;;;;;;14.20;7.73;;;9.50;56.10;;;;;;5003936;28;20194;-85
2021/04/24 06:31:13;;;;;;;28.43;8.10;;;9.50;55.40;;;;;;5003048;28;20736;-85
2021/04/24 06:33:38;;;;;;;16.07;7.63;;;9.60;55.10;;;;;;5004300;28;20179;-85
2021/04/24 06:36:05;;;;;;;18.63;7.70;;;9.60;54.40;;;;;;5003025;28;20189;-85
2021/04/24 06:38:31;;;;;;;21.03;8.57;;;9.60;54.90;;;;;;4989052;28;20206;-87
2021/04/24 06:40:57;;;;;;;16.77;9.37;;;9.60;54.20;;;;;;4983814;28;20199;-86
2021/04/24 06:43:22;;;;;;;10.37;6.80;;;9.60;54.30;;;;;;4984946;28;20182;-86
2021/04/24 06:45:48;;;;;;;20.60;8.10;;;9.60;54.40;;;;;;4990538;28;20194;-86
2021/04/24 06:48:14;;;;;;;8.10;7.17;;;9.80;53.90;;;;;;5000917;28;20190;-86
2021/04/24 06:50:40;;;;;;;11.07;7.30;;;9.80;53.80;;;;;;5001445;28;20214;-83
2021/04/24 06:53:05;;;;;;;18.90;8.13;;;10.00;53.70;;;;;;5002955;28;20217;-84
2021/04/24 06:55:31;;;;;;;18.70;8.97;;;10.10;52.80;;;;;;5007186;28;20232;-84
2021/04/24 06:57:57;;;;;;;10.60;6.50;;;10.20;52.70;;;;;;5009063;28;20182;-83
2021/04/24 07:00:23;;;;;;;10.47;6.87;;;10.40;52.60;;;;;;5013856;28;20209;-84
2021/04/24 07:02:49;;;;;;;10.23;7.83;;;10.50;51.70;;;;;;5011055;28;20188;-83
2021/04/24 07:05:15;;;;;;;31.77;13.63;;;10.60;51.30;;;;;;5002114;28;20201;-83
2021/04/24 07:07:42;;;;;;;47.67;14.47;;;10.70;51.30;;;;;;5007345;28;20445;-82
2021/04/24 07:10:09;;;;;;;49.93;10.43;;;10.80;51.00;;;;;;5002236;28;20711;-83
2021/04/24 07:12:35;;;;;;;45.43;9.97;;;10.80;50.20;;;;;;5013934;28;20193;-84
2021/04/24 07:15:02;;;;;;;30.27;8.37;;;10.80;50.30;;;;;;5007081;28;20273;-82
2021/04/24 07:17:27;;;;;;;38.03;9.07;;;11.00;50.00;;;;;;5008582;28;20217;-83
2021/04/24 07:19:53;;;;;;;11.13;6.50;;;11.00;49.40;;;;;;5000270;28;20202;-85
2021/04/24 07:22:19;;;;;;;11.40;7.60;;;11.10;49.40;;;;;;5000553;28;20530;-83
2021/04/24 07:24:46;;;;;;;12.17;7.43;;;11.10;49.30;;;;;;5014430;28;20194;-84
2021/04/24 07:27:13;;;;;;;7.43;6.13;;;11.20;49.90;;;;;;5007853;28;20636;-83
2021/04/24 07:29:39;;;;;;;8.97;6.33;;;11.30;49.20;;;;;;5006500;28;20177;-83
2021/04/24 07:32:05;;;;;;;15.47;6.80;;;11.50;48.50;;;;;;5007345;28;20209;-85
2021/04/24 07:34:31;;;;;;;7.10;6.23;;;11.60;48.20;;;;;;5003884;28;20182;-88
2021/04/24 07:36:57;;;;;;;9.23;6.03;;;11.80;47.30;;;;;;4999449;28;20174;-86
2021/04/24 07:39:22;;;;;;;9.83;6.10;;;11.90;47.40;;;;;;4997434;28;20178;-89
2021/04/24 07:41:48;;;;;;;11.37;6.10;;;12.10;47.40;;;;;;4993747;28;20553;-88
2021/04/24 07:44:14;;;;;;;15.83;6.43;;;12.10;47.10;;;;;;4995659;28;20193;-87
2021/04/24 07:46:39;;;;;;;9.13;6.70;;;12.20;46.80;;;;;;4998611;28;20189;-85
2021/04/24 07:49:05;;;;;;;10.03;6.30;;;12.40;46.30;;;;;;5002929;28;20190;-84
2021/04/24 07:51:30;;;;;;;7.23;6.50;;;12.40;46.30;;;;;;5004962;28;20244;-86
2021/04/24 07:53:56;;;;;;;12.87;7.53;;;12.60;46.20;;;;;;4996804;28;20217;-86
2021/04/24 07:56:22;;;;;;;8.17;6.43;;;12.60;46.60;;;;;;5000732;28;20186;-84
2021/04/24 07:58:47;;;;;;;9.57;7.03;;;12.70;46.80;;;;;;4991097;28;20185;-85
2021/04/24 08:01:13;;;;;;;9.07;6.60;;;12.80;46.40;;;;;;5009926;28;20203;-85
2021/04/24 08:03:39;;;;;;;11.30;6.13;;;12.90;46.10;;;;;;5011867;28;20533;-84
2021/04/24 08:06:05;;;;;;;9.50;6.80;;;13.00;45.90;;;;;;4988438;28;20216;-87
2021/04/24 08:08:30;;;;;;;8.80;7.27;;;13.10;45.80;;;;;;5008780;28;20203;-86
2021/04/24 08:10:56;;;;;;;8.70;6.70;;;13.00;45.40;;;;;;4999289;28;20706;-86
2021/04/24 08:13:22;;;;;;;12.00;7.27;;;13.20;45.40;;;;;;4985939;28;20261;-87
2021/04/24 08:15:49;;;;;;;12.53;7.30;;;13.30;45.20;;;;;;5000693;28;20236;-85
2021/04/24 08:18:14;;;;;;;12.30;6.83;;;13.30;45.60;;;;;;4992638;28;20183;-85
2021/04/24 08:20:40;;;;;;;11.10;6.83;;;13.40;44.40;;;;;;5001240;28;20207;-85
2021/04/24 08:23:06;;;;;;;12.87;7.73;;;13.30;44.90;;;;;;5000766;28;20197;-85
2021/04/24 08:25:32;;;;;;;12.13;6.63;;;13.30;45.50;;;;;;5005477;28;20191;-83
2021/04/24 08:27:58;;;;;;;11.33;8.07;;;13.30;44.80;;;;;;5003113;28;20212;-84
2021/04/24 08:30:24;;;;;;;10.10;7.07;;;13.50;45.40;;;;;;5001370;28;20217;-85
2021/04/24 08:32:50;;;;;;;14.03;7.30;;;13.60;44.30;;;;;;5000697;28;20274;-87
2021/04/24 08:35:16;;;;;;;9.77;7.07;;;13.50;44.30;;;;;;4998461;28;20226;-85
2021/04/24 08:37:44;;;;;;;10.90;7.47;;;13.60;44.60;;;;;;5007116;28;20159;-84
2021/04/24 08:40:12;;;;;;;8.93;7.53;;;13.70;44.00;;;;;;5013254;28;20209;-85
2021/04/24 08:42:38;;;;;;;7.97;6.67;;;13.90;43.90;;;;;;4999796;28;20269;-85
2021/04/24 08:45:14;;;;;;;8.87;6.70;;;14.00;43.90;;;;;;4981757;28;20267;-87
2021/04/24 08:47:48;;;;;;;8.53;7.63;;;14.30;43.30;;;;;;5015336;28;20245;-85
2021/04/24 08:50:20;;;;;;;10.10;6.57;;;14.30;43.10;;;;;;5011078;28;20200;-86
2021/04/24 08:52:46;;;;;;;9.60;8.07;;;14.30;43.00;;;;;;4998678;28;20174;-86
2021/04/24 08:55:17;;;;;;;11.03;7.10;;;14.40;42.80;;;;;;4999241;28;20208;-86
2021/04/24 08:57:44;;;;;;;7.67;6.87;;;14.40;42.90;;;;;;5009786;28;20185;-85
2021/04/24 09:00:11;;;;;;;8.97;7.30;;;14.50;42.80;;;;;;4999603;28;20208;-85
2021/04/24 09:02:41;;;;;;;12.87;7.87;;;14.50;42.10;;;;;;4998654;28;20180;-86
2021/04/24 09:05:08;;;;;;;8.67;7.50;;;14.80;42.40;;;;;;4997913;28;20706;-84
2021/04/24 09:07:33;;;;;;;12.13;8.00;;;14.90;40.60;;;;;;4998303;28;20188;-86
2021/04/24 09:09:59;;;;;;;8.53;7.67;;;15.00;40.30;;;;;;4998861;28;20382;-87
2021/04/24 09:12:36;;;;;;;12.97;7.90;;;15.30;41.20;;;;;;4998962;28;20253;-85
2021/04/24 09:15:10;;;;;;;10.37;8.03;;;15.40;40.80;;;;;;4999609;28;20198;-85
2021/04/24 09:17:54;;;;;;;11.27;7.20;;;15.80;40.50;;;;;;4999397;28;20218;-84
2021/04/24 09:20:22;;;;;;;9.80;7.47;;;15.80;39.70;;;;;;4998835;28;20194;-83
2021/04/24 09:23:00;;;;;;;13.23;7.57;;;15.80;39.60;;;;;;5001580;28;20179;-85
2021/04/24 09:25:34;;;;;;;10.53;8.10;;;15.70;39.70;;;;;;5001129;28;20285;-84
2021/04/24 09:28:00;;;;;;;10.17;8.23;;;15.80;39.60;;;;;;5011215;28;20225;-84
2021/04/24 09:30:30;;;;;;;9.07;8.07;;;16.10;39.80;;;;;;5013880;28;20220;-84
2021/04/24 09:33:12;;;;;;;11.43;7.13;;;16.00;39.30;;;;;;5003915;28;20229;-83
2021/04/24 09:35:39;;;;;;;9.90;8.00;;;16.20;39.20;;;;;;5010906;28;20239;-83
2021/04/24 09:38:04;;;;;;;9.83;7.17;;;16.60;39.00;;;;;;5021395;28;20261;-83
2021/04/24 09:40:30;;;;;;;14.43;8.17;;;16.70;37.90;;;;;;5018686;28;20236;-85
2021/04/24 09:43:06;;;;;;;9.53;7.27;;;16.90;38.10;;;;;;4983007;28;20187;-86
2021/04/24 09:45:42;;;;;;;10.77;7.53;;;17.20;37.30;;;;;;5020503;28;20594;-86
2021/04/24 09:48:25;;;;;;;12.90;7.90;;;17.30;36.30;;;;;;5012036;28;20204;-87
2021/04/24 09:50:51;;;;;;;9.70;8.70;;;17.40;36.50;;;;;;4998694;28;20221;-85
2021/04/24 09:53:18;;;;;;;9.33;8.30;;;17.40;36.20;;;;;;4998657;28;20181;-85
2021/04/24 09:55:45;;;;;;;11.57;7.40;;;17.30;36.40;;;;;;4998837;28;20271;-86
2021/04/24 09:58:33;;;;;;;10.53;7.53;;;17.40;36.30;;;;;;4997529;28;20174;-86
2021/04/24 10:01:19;;;;;;;11.80;7.73;;;17.30;36.50;;;;;;5001051;28;20214;-86
2021/04/24 10:03:48;;;;;;;8.50;7.30;;;17.30;36.40;;;;;;4990384;28;20215;-86
2021/04/24 10:06:33;;;;;;;10.23;7.90;;;17.60;36.20;;;;;;4997135;28;20190;-86
2021/04/24 10:09:11;;;;;;;8.97;7.13;;;18.10;35.10;;;;;;5000629;28;20192;-83
2021/04/24 10:11:37;;;;;;;15.13;7.80;;;18.10;35.20;;;;;;4996506;28;20209;-84
2021/04/24 10:14:04;;;;;;;10.77;8.57;;;18.30;34.90;;;;;;4998212;28;20189;-84
2021/04/24 10:16:43;;;;;;;8.10;7.27;;;18.40;34.20;;;;;;4998183;28;20213;-84
2021/04/24 10:19:12;;;;;;;12.10;8.43;;;18.50;34.70;;;;;;5016820;28;20193;-84
2021/04/24 10:21:38;;;;;;;11.47;7.97;;;18.70;34.30;;;;;;4992241;28;20197;-84
2021/04/24 10:24:05;;;;;;;10.17;8.37;;;19.00;33.90;;;;;;5009729;28;20191;-84
2021/04/24 10:26:31;;;;;;;9.30;8.17;;;18.80;33.20;;;;;;5000441;28;20198;-84
2021/04/24 10:28:59;;;;;;;15.07;8.07;;;18.80;33.20;;;;;;5009696;28;20271;-85
2021/04/24 10:31:25;;;;;;;9.57;7.23;;;19.10;33.40;;;;;;5011326;28;20292;-84
2021/04/24 10:33:51;;;;;;;10.07;8.57;;;19.40;32.90;;;;;;5000156;28;20178;-84
2021/04/24 10:36:17;;;;;;;9.00;7.97;;;19.30;32.60;;;;;;5015509;28;20188;-84
2021/04/24 10:38:48;;;;;;;10.33;8.30;;;19.40;32.40;;;;;;4997606;28;20193;-85
2021/04/24 10:41:15;;;;;;;10.50;8.27;;;19.20;32.60;;;;;;5009849;28;20811;-85
2021/04/24 10:43:55;;;;;;;10.03;7.80;;;19.30;32.90;;;;;;5006828;28;20192;-87
2021/04/24 10:46:30;;;;;;;11.60;8.93;;;19.60;32.80;;;;;;5006696;28;20181;-86
2021/04/24 10:49:18;;;;;;;11.70;9.10;;;20.00;32.50;;;;;;5008956;28;20250;-86
2021/04/24 10:51:57;;;;;;;9.63;8.60;;;19.70;32.40;;;;;;5000955;28;20207;-86
2021/04/24 10:54:26;;;;;;;12.30;8.38;;;19.90;32.50;;;;;;4998058;28;20740;-86
2021/04/24 10:56:52;;;;;;;11.80;9.65;;;20.30;32.10;;;;;;5004689;28;20208;-86
2021/04/24 10:59:26;;;;;;;14.02;8.98;;;20.30;30.80;;;;;;5003328;28;20200;-86
2021/04/24 11:02:11;;;;;;;14.07;8.60;;;20.20;30.80;;;;;;5002784;28;20195;-86
2021/04/24 11:04:44;;;;;;;11.60;10.02;;;20.10;30.70;;;;;;5006228;28;20845;-87
2021/04/24 11:07:27;;;;;;;14.35;8.90;;;20.20;30.70;;;;;;5005245;28;20259;-86
2021/04/24 11:10:12;;;;;;;10.57;8.80;;;20.30;31.60;;;;;;5000435;28;20291;-87
2021/04/24 11:12:45;;;;;;;11.38;8.55;;;20.30;30.80;;;;;;5001511;28;20557;-86
2021/04/24 11:15:14;;;;;;;9.35;8.25;;;20.30;30.90;;;;;;5009550;28;20284;-87
2021/04/24 11:17:40;;;;;;;11.68;9.40;;;20.50;30.50;;;;;;5010836;28;20204;-87
2021/04/24 11:20:08;;;;;;;13.27;9.35;;;20.70;29.90;;;;;;5012721;28;20208;-87
2021/04/24 11:22:42;;;;;;;10.02;8.88;;;20.70;30.00;;;;;;5014670;28;20169;-87
2021/04/24 11:25:25;;;;;;;10.95;9.75;;;20.90;29.80;;;;;;5024026;28;20205;-86
2021/04/24 11:28:07;;;;;;;10.63;9.05;;;21.20;29.40;;;;;;5003530;28;20181;-87
2021/04/24 11:31:04;;;;;;;11.55;9.55;;;21.40;28.90;;;;;;5002418;28;20214;-87
2021/04/24 11:33:45;;;;;;;11.75;9.50;;;21.10;29.50;;;;;;5031388;28;20180;-87
2021/04/24 11:36:31;;;;;;;11.18;8.95;;;21.00;29.30;;;;;;5019576;28;20177;-87
2021/04/24 11:38:57;;;;;;;11.05;9.75;;;21.20;29.50;;;;;;5011402;28;20193;-87
2021/04/24 11:41:40;;;;;;;12.30;10.18;;;21.20;29.00;;;;;;5008236;28;20213;-88
2021/04/24 11:44:24;;;;;;;11.57;9.00;;;20.90;29.10;;;;;;5006109;28;20246;-87
2021/04/24 11:46:54;;;;;;;14.95;10.82;;;21.20;28.80;;;;;;5004693;28;20177;-86
2021/04/24 11:49:22;;;;;;;11.45;10.32;;;21.40;28.10;;;;;;5012947;28;20214;-86
2021/04/24 11:51:51;;;;;;;12.02;10.23;;;21.60;28.10;;;;;;5006566;28;20617;-85
2021/04/24 11:54:38;;;;;;;15.73;9.90;;;21.90;28.00;;;;;;5002928;28;20270;-87
2021/04/24 11:57:09;;;;;;;11.00;9.90;;;22.30;27.10;;;;;;4998926;28;20216;-86
2021/04/24 11:59:37;;;;;;;11.05;9.88;;;22.60;26.10;;;;;;4994052;28;20178;-87
2021/04/24 12:02:34;;;;;;;10.70;9.63;;;22.50;26.50;;;;;;5006866;28;20251;-88
2021/04/24 12:05:05;;;;;;;11.68;10.50;;;22.80;26.30;;;;;;5010641;28;20638;-88
2021/04/24 12:07:43;;;;;;;10.35;9.43;;;22.70;26.30;;;;;;5006780;28;20174;-88
2021/04/24 12:10:12;;;;;;;11.90;8.95;;;22.60;25.50;;;;;;4998674;28;20218;-88
2021/04/24 12:12:48;;;;;;;17.42;9.70;;;22.50;24.50;;;;;;5007818;28;20264;-88
2021/04/24 12:15:14;;;;;;;11.65;9.60;;;23.20;24.50;;;;;;4996882;28;20187;-87
2021/04/24 12:17:53;;;;;;;14.35;9.20;;;23.30;24.30;;;;;;4999935;28;20185;-88
2021/04/24 12:20:36;;;;;;;9.60;8.63;;;23.10;24.50;;;;;;5001493;28;20690;-87
2021/04/24 12:23:07;;;;;;;16.00;10.13;;;23.30;24.70;;;;;;5004497;28;20188;-88
2021/04/24 12:25:35;;;;;;;13.73;9.10;;;23.00;24.40;;;;;;5012159;28;20237;-87
2021/04/24 12:28:09;;;;;;;11.13;9.98;;;22.70;25.00;;;;;;5018748;28;20190;-88
2021/04/24 12:30:37;;;;;;;13.70;9.55;;;22.90;24.60;;;;;;5019815;28;20218;-88
2021/04/24 12:33:03;;;;;;;12.98;9.05;;;23.00;24.90;;;;;;5012161;28;20186;-88
2021/04/24 12:35:31;;;;;;;12.35;9.68;;;23.40;24.20;;;;;;5018803;28;20264;-88
2021/04/24 12:38:01;;;;;;;10.75;9.65;;;23.60;23.80;;;;;;5010243;28;20274;-88
2021/04/24 12:40:28;;;;;;;12.10;10.10;;;23.60;24.20;;;;;;5003498;28;20207;-89
2021/04/24 12:43:02;;;;;;;13.48;10.93;;;23.40;24.30;;;;;;5010777;28;20184;-89
2021/04/24 12:45:28;;;;;;;11.45;10.02;;;23.40;24.00;;;;;;5015255;28;20206;-88
2021/04/24 12:47:55;;;;;;;11.80;10.45;;;23.60;24.10;;;;;;5019800;28;20182;-88
2021/04/24 12:50:26;;;;;;;11.77;10.57;;;23.70;24.20;;;;;;5016671;28;20208;-89
2021/04/24 12:52:58;;;;;;;12.15;10.00;;;23.80;23.80;;;;;;5013194;28;20188;-89